Zinder, Niger
Current Conditions -  °F | °C
As of 5:00 PM on Friday 24 Oct 2014 (Local Time) from DRZA Reporting Station
Clear Clear  
Wind Chill: 99°   Ceiling: Unl
Heat Index: 99°   Visibility: 6mi
Dew Point: 28°   Wind: 2mph
Humidity: 8%   Direction: 240°WSW
Pressure: 29.91"   Gusts: NA
Location:  13.8°N, 8.99°E
Report Text: DRZA 241600Z 24002KT CAVOK 37/M02 Q1013
Loading
Personal Weather Stations






























Interactive Weather Map
Tropical Storm Tracking
New forecast layout! Learn more

10-Day Weather Forecast

Advertisements
Track Severe Weather on mobile